Koryo Maru No.51 — JIGB — position and weather

sailwx.info

Track history (hours):
 
Tides and Currents Weather Stations Pressure Air Temp Water Temp Dewpoint Dewpoint Depression Visibility Wind Speed Wind Dir Waves Ship Positions

Koryo Maru No.51

Last reported at 2017-Oct-30 15:49 UTC. Time now 2017-Dec-14 04:34 UTC.
Position N 16°13' W 028°48'.
Warning: this ship's position is 44 days out of date.

Length 60 m.

Type: Fishing. MMSI: 431100750.

Date/timePositionNaut miles runAvg speedWind from/ knotsBaromVisibWave heightAir tempDewpointWater temp
2017-Oct-30 15:49N 16°13' W 028°48'412.1
2017-Oct-30 15:30N 16°09' W 028°48'81 4.7
2017-Oct-29 22:10N 17°29' W 029°04'2 4.6
2017-Oct-29 21:49N 17°29' W 029°05'3 5.5
2017-Oct-29 21:19N 17°29' W 029°08'2 4.6
2017-Oct-29 20:57N 17°29' W 029°10'2 3.9
2017-Oct-29 20:30N 17°29' W 029°12'2 4.1
2017-Oct-29 19:59N 17°29' W 029°14'2 4.4
2017-Oct-29 19:28N 17°29' W 029°16'2 4.4
2017-Oct-29 18:59N 17°29' W 029°19'2 4.6
2017-Oct-29 18:27N 17°26' W 029°19'612.2
2017-Oct-29 17:58N 17°21' W 029°17'612.4
2017-Oct-29 17:28N 17°15' W 029°15'612.3
2017-Oct-29 16:59N 17°09' W 029°12'612.3
2017-Oct-29 16:27N 17°04' W 029°09'612.2
2017-Oct-29 15:57N 16°58' W 029°06'612.2
2017-Oct-29 15:28N 16°53' W 029°04'612.1
2017-Oct-29 14:58N 16°47' W 029°01'4 8.2
2017-Oct-29 14:27N 16°51' W 029°00'511.5
2017-Oct-29 13:59N 16°57' W 028°60'611.3
2017-Oct-29 13:28N 17°03' W 028°59'511.2
2017-Oct-29 12:59N 17°08' W 028°59'611.3
2017-Oct-29 12:28N 17°14' W 028°58'511.3
2017-Oct-29 12:01N 17°19' W 028°58'611.3
2017-Oct-29 11:30N 17°25' W 028°57'4 7.8
2017-Oct-29 10:55N 17°28' W 029°01'511.3
2017-Oct-29 10:30N 17°28' W 029°06'611.2
2017-Oct-29 09:57N 17°28' W 029°12'510.7
2017-Oct-29 09:30N 17°28' W 029°17'54 3.6
2017-Oct-28 18:32N 17°33' W 030°14'0 4.9
2017-Oct-28 18:30N 17°33' W 030°14'4 4.1
2017-Oct-28 17:25N 17°33' W 030°18'5 4.9
2017-Oct-28 16:27N 17°32' W 030°23'73 4.6
2017-Oct-28 00:36N 17°12' W 029°10'1 3.6
2017-Oct-28 00:27N 17°11' W 029°10'6 4.6
2017-Oct-27 23:08N 17°05' W 029°12'4 3.9
2017-Oct-27 22:07N 17°02' W 029°13'1 3.5
2017-Oct-27 21:57N 17°01' W 029°13'2 4.7
2017-Oct-27 21:29N 16°59' W 029°14'3 5.1
2017-Oct-27 20:57N 16°57' W 029°15'2 4.9
2017-Oct-27 20:27N 16°55' W 029°18'24 1.2
2017-Oct-27 00:38N 17°19' W 029°19'0 3.0
2017-Oct-27 00:29N 17°19' W 029°19'66 2.6
2017-Oct-25 23:20N 17°44' W 028°15'512.6
2017-Oct-25 22:56N 17°46' W 028°11'612.5
2017-Oct-25 22:25N 17°49' W 028°05'712.6
2017-Oct-25 21:52N 17°52' W 027°58'14712.2
2017-Oct-25 09:52N 18°56' W 025°39'10112.3
2017-Oct-25 01:39N 19°21' W 023°56'212.5
2017-Oct-25 01:28N 19°22' W 023°53'3112.5
2017-Oct-24 22:58N 19°28' W 023°21'4912.8
2017-Oct-24 19:08N 19°39' W 022°30'212.3
2017-Oct-24 19:00N 19°39' W 022°29'3312.8
2017-Oct-24 16:25N 19°47' W 021°54'1412.6
2017-Oct-24 15:18N 19°50' W 021°40'412.5
2017-Oct-24 14:58N 19°51' W 021°36'712.5
2017-Oct-24 14:24N 19°53' W 021°28'  
Track history (hours):
 
Tides and Currents Weather Stations Pressure Air Temp Water Temp Dewpoint Dewpoint Depression Visibility Wind Speed Wind Dir Waves Ship Positions

Koryo Maru No.51

Last reported at 2017-Oct-30 15:49 UTC. Time now 2017-Dec-14 04:34 UTC.
Position N 16°13' W 028°48'.
Warning: this ship's position is 44 days out of date.

Length 60 m.

Type: Fishing. MMSI: 431100750.

Date/timePositionNaut miles runAvg speedWind from/ knotsBaromVisibWave heightAir tempDewpointWater temp
2017-Oct-30 15:49N 16°13' W 028°48'412.1
2017-Oct-30 15:30N 16°09' W 028°48'81 4.7
2017-Oct-29 22:10N 17°29' W 029°04'2 4.6
2017-Oct-29 21:49N 17°29' W 029°05'3 5.5
2017-Oct-29 21:19N 17°29' W 029°08'2 4.6
2017-Oct-29 20:57N 17°29' W 029°10'2 3.9
2017-Oct-29 20:30N 17°29' W 029°12'2 4.1
2017-Oct-29 19:59N 17°29' W 029°14'2 4.4
2017-Oct-29 19:28N 17°29' W 029°16'2 4.4
2017-Oct-29 18:59N 17°29' W 029°19'2 4.6
2017-Oct-29 18:27N 17°26' W 029°19'612.2
2017-Oct-29 17:58N 17°21' W 029°17'612.4
2017-Oct-29 17:28N 17°15' W 029°15'612.3
2017-Oct-29 16:59N 17°09' W 029°12'612.3
2017-Oct-29 16:27N 17°04' W 029°09'612.2
2017-Oct-29 15:57N 16°58' W 029°06'612.2
2017-Oct-29 15:28N 16°53' W 029°04'612.1
2017-Oct-29 14:58N 16°47' W 029°01'4 8.2
2017-Oct-29 14:27N 16°51' W 029°00'511.5
2017-Oct-29 13:59N 16°57' W 028°60'611.3
2017-Oct-29 13:28N 17°03' W 028°59'511.2
2017-Oct-29 12:59N 17°08' W 028°59'611.3
2017-Oct-29 12:28N 17°14' W 028°58'511.3
2017-Oct-29 12:01N 17°19' W 028°58'611.3
2017-Oct-29 11:30N 17°25' W 028°57'4 7.8
2017-Oct-29 10:55N 17°28' W 029°01'511.3
2017-Oct-29 10:30N 17°28' W 029°06'611.2
2017-Oct-29 09:57N 17°28' W 029°12'510.7
2017-Oct-29 09:30N 17°28' W 029°17'54 3.6
2017-Oct-28 18:32N 17°33' W 030°14'0 4.9
2017-Oct-28 18:30N 17°33' W 030°14'4 4.1
2017-Oct-28 17:25N 17°33' W 030°18'5 4.9
2017-Oct-28 16:27N 17°32' W 030°23'73 4.6
2017-Oct-28 00:36N 17°12' W 029°10'1 3.6
2017-Oct-28 00:27N 17°11' W 029°10'6 4.6
2017-Oct-27 23:08N 17°05' W 029°12'4 3.9
2017-Oct-27 22:07N 17°02' W 029°13'1 3.5
2017-Oct-27 21:57N 17°01' W 029°13'2 4.7
2017-Oct-27 21:29N 16°59' W 029°14'3 5.1
2017-Oct-27 20:57N 16°57' W 029°15'2 4.9
2017-Oct-27 20:27N 16°55' W 029°18'24 1.2
2017-Oct-27 00:38N 17°19' W 029°19'0 3.0
2017-Oct-27 00:29N 17°19' W 029°19'66 2.6
2017-Oct-25 23:20N 17°44' W 028°15'512.6
2017-Oct-25 22:56N 17°46' W 028°11'612.5
2017-Oct-25 22:25N 17°49' W 028°05'712.6
2017-Oct-25 21:52N 17°52' W 027°58'14712.2
2017-Oct-25 09:52N 18°56' W 025°39'10112.3
2017-Oct-25 01:39N 19°21' W 023°56'212.5
2017-Oct-25 01:28N 19°22' W 023°53'3112.5
2017-Oct-24 22:58N 19°28' W 023°21'4912.8
2017-Oct-24 19:08N 19°39' W 022°30'212.3
2017-Oct-24 19:00N 19°39' W 022°29'3312.8
2017-Oct-24 16:25N 19°47' W 021°54'1412.6
2017-Oct-24 15:18N 19°50' W 021°40'412.5
2017-Oct-24 14:58N 19°51' W 021°36'712.5
2017-Oct-24 14:24N 19°53' W 021°28'  

Dump ship's entire track history